CheckWX is a tool to help pilots better visualize weather data.  It is not intended as a substitute for an official pre-flight weather briefing.

07:57:57 UTC

KIAH METAR
George Bush Intercontinental / Houston Airport
Houston, Texas, USA
Current

1 hour ago

KIAH 060653Z 17004KT 10SM FEW023 BKN250 18/16 A3000 RMK AO2 SLP159 T01830156
Observed
Dec-6 @ 06:53 UTC
Wind
  • 170° at 4 KTS
Visibility
10 SM
Flight Rules
VFR
Cloud Levels
  • Few at 2,300' AGL
  • Broken at 25,000' AGL
Temperature
18°C / 64°F
Dewpoint
16°C / 61°F
Humidity
88%
Altimeter
30" Hg
Pressure
1015.92 hPa
Previous

2 hours ago

KIAH 060553Z 17005KT 10SM FEW023 BKN250 18/15 A3001 RMK AO2 SLP163 T01780150 10211 20156 402500094 50002
Observed
Dec-6 @ 05:53 UTC
Wind
  • 170° at 5 KTS
Visibility
10 SM
Flight Rules
VFR
Cloud Levels
  • Few at 2,300' AGL
  • Broken at 25,000' AGL
Temperature
18°C / 64°F
Dewpoint
15°C / 59°F
Humidity
83%
Altimeter
30.01" Hg
Pressure
1016.22 hPa
Previous

3 hours ago

KIAH 060453Z 17005KT 10SM SCT024 BKN250 16/14 A3002 RMK AO2 SLP165 T01560139
Observed
Dec-6 @ 04:53 UTC
Wind
  • 170° at 5 KTS
Visibility
10 SM
Flight Rules
VFR
Cloud Levels
  • Scattered at 2,400' AGL
  • Broken at 25,000' AGL
Temperature
16°C / 61°F
Dewpoint
14°C / 57°F
Humidity
88%
Altimeter
30.02" Hg
Pressure
1016.62 hPa